createdAt,value
2023-04-17T00:00:37.883Z,99733.84
2023-04-17T00:03:06.593Z,99735.50
2023-04-17T00:05:34.999Z,99733.84
2023-04-17T00:08:03.493Z,99719.47
2023-04-17T00:10:31.967Z,99725.78
2023-04-17T00:13:01.707Z,99728.91
2023-04-17T00:15:29.902Z,99726.63
2023-04-17T00:17:58.030Z,99728.03
2023-04-17T00:20:26.257Z,99729.75
2023-04-17T00:22:54.581Z,99734.09
2023-04-17T00:25:22.724Z,99731.50
2023-04-17T00:27:51.057Z,99729.59
2023-04-17T00:30:20.940Z,99737.66
2023-04-17T00:32:49.311Z,99725.06
2023-04-17T00:35:17.906Z,99734.94
2023-04-17T00:37:46.052Z,99732.56
2023-04-17T00:40:15.596Z,99737.59
2023-04-17T00:42:43.673Z,99732.94
2023-04-17T00:45:12.367Z,99731.16
2023-04-17T00:47:41.958Z,99727.47
2023-04-17T00:50:11.242Z,99731.91
2023-04-17T00:52:39.382Z,99730.13
2023-04-17T00:55:10.934Z,99730.00
2023-04-17T00:57:38.984Z,99726.31
2023-04-17T01:00:09.716Z,99727.56
2023-04-17T01:02:38.619Z,99726.09
2023-04-17T01:05:09.074Z,99726.38
2023-04-17T01:07:37.821Z,99724.69
2023-04-17T01:10:06.574Z,99720.88
2023-04-17T01:12:34.931Z,99726.88
2023-04-17T01:15:02.994Z,99726.94
2023-04-17T01:17:31.394Z,99720.50
2023-04-17T01:19:59.814Z,99722.28
2023-04-17T01:22:29.275Z,99719.34
2023-04-17T01:24:58.924Z,99716.97
2023-04-17T01:27:27.341Z,99722.19
2023-04-17T01:29:55.752Z,99723.22
2023-04-17T01:32:24.383Z,99722.09
2023-04-17T01:34:52.501Z,99726.78
2023-04-17T01:37:20.522Z,99722.09
2023-04-17T01:39:48.835Z,99719.72
2023-04-17T01:42:18.572Z,99723.91
2023-04-17T01:44:46.716Z,99720.06
2023-04-17T01:47:14.895Z,99724.88
2023-04-17T01:49:42.988Z,99722.84
2023-04-17T01:52:11.100Z,99731.88
2023-04-17T01:54:39.362Z,99726.28
2023-04-17T01:57:07.438Z,99727.38
2023-04-17T01:59:38.021Z,99727.94
2023-04-17T02:02:06.430Z,99729.25
2023-04-17T02:04:34.938Z,99727.97
2023-04-17T02:07:03.173Z,99719.81
2023-04-17T02:09:31.352Z,99731.41
2023-04-17T02:11:59.425Z,99728.34
2023-04-17T02:14:27.611Z,99721.34
2023-04-17T02:16:57.237Z,99728.88
2023-04-17T02:19:25.680Z,99726.72
2023-04-17T02:21:53.759Z,99730.63
2023-04-17T02:24:22.070Z,99733.63
2023-04-17T02:26:50.096Z,99729.03
2023-04-17T02:29:18.285Z,99725.78
2023-04-17T02:31:46.625Z,99721.88
2023-04-17T02:34:17.027Z,99733.19
2023-04-17T02:36:45.158Z,99726.09
2023-04-17T02:39:13.344Z,99727.97
2023-04-17T02:41:41.671Z,99724.81
2023-04-17T02:44:10.110Z,99726.19
2023-04-17T02:46:38.451Z,99728.84
2023-04-17T02:49:06.872Z,99722.84
2023-04-17T02:51:36.628Z,99728.59
2023-04-17T02:54:04.717Z,99727.03
2023-04-17T02:56:32.880Z,99718.47
2023-04-17T02:59:01.132Z,99726.59
2023-04-17T03:01:30.186Z,99728.44
2023-04-17T03:03:59.024Z,99719.97
2023-04-17T03:06:27.660Z,99721.72
2023-04-17T03:08:57.423Z,99722.91
2023-04-17T03:11:25.638Z,99726.22
2023-04-17T03:13:55.302Z,99724.28
2023-04-17T03:16:23.651Z,99725.13
2023-04-17T03:18:51.775Z,99734.78
2023-04-17T03:21:19.854Z,99736.44
2023-04-17T03:23:47.912Z,99738.59
2023-04-17T03:26:18.818Z,99736.91
2023-04-17T03:28:46.804Z,99746.34
2023-04-17T03:31:15.333Z,99729.63
2023-04-17T03:33:43.623Z,99737.19
2023-04-17T03:36:11.966Z,99739.97
2023-04-17T03:38:39.982Z,99731.25
2023-04-17T03:41:08.294Z,99732.16
2023-04-17T03:43:38.177Z,99740.94
2023-04-17T03:46:06.944Z,99730.31
2023-04-17T03:48:35.418Z,99734.81
2023-04-17T03:51:04.687Z,99735.47
2023-04-17T03:53:32.863Z,99737.94
2023-04-17T03:56:01.728Z,99734.97
2023-04-17T03:58:29.938Z,99735.38
2023-04-17T04:01:02.317Z,99734.19
2023-04-17T04:03:30.662Z,99734.28
2023-04-17T04:05:59.037Z,99739.28
2023-04-17T04:08:27.075Z,99735.78
2023-04-17T04:10:56.681Z,99741.84
2023-04-17T04:13:24.880Z,99737.63
2023-04-17T04:15:52.974Z,99740.75
2023-04-17T04:18:22.481Z,99739.09
2023-04-17T04:20:50.855Z,99739.09
2023-04-17T04:23:21.185Z,99742.06
2023-04-17T04:25:49.801Z,99747.19
2023-04-17T04:28:18.632Z,99754.09
2023-04-17T04:30:51.135Z,99747.53
2023-04-17T04:33:20.658Z,99756.03
2023-04-17T04:35:52.081Z,99758.81
2023-04-17T04:38:20.240Z,99757.50
2023-04-17T04:40:52.751Z,99755.88
2023-04-17T04:43:22.493Z,99757.56
2023-04-17T04:45:51.032Z,99748.16
2023-04-17T04:48:19.055Z,99752.25
2023-04-17T04:50:47.450Z,99752.81
2023-04-17T04:53:17.053Z,99751.03
2023-04-17T04:55:45.187Z,99755.53
2023-04-17T04:58:13.501Z,99751.72
2023-04-17T05:00:42.026Z,99758.84
2023-04-17T05:03:10.620Z,99756.34
2023-04-17T05:05:38.858Z,99764.22
2023-04-17T05:08:07.485Z,99767.97
2023-04-17T05:10:37.158Z,99768.06
2023-04-17T05:13:05.259Z,99769.66
2023-04-17T05:15:33.362Z,99765.44
2023-04-17T05:18:01.574Z,99779.53
2023-04-17T05:20:29.982Z,99772.41
2023-04-17T05:22:58.660Z,99772.47
2023-04-17T05:25:27.096Z,99786.97
2023-04-17T05:27:58.536Z,99775.81
2023-04-17T05:30:26.827Z,99777.53
2023-04-17T05:32:55.290Z,99778.19
2023-04-17T05:35:23.521Z,99777.53
2023-04-17T05:37:51.828Z,99782.66
2023-04-17T05:40:20.092Z,99785.88
2023-04-17T05:42:48.229Z,99788.59
2023-04-17T05:45:19.346Z,99795.44
2023-04-17T05:47:47.466Z,99794.56
2023-04-17T05:50:15.691Z,99791.16
2023-04-17T05:52:43.728Z,99799.72
2023-04-17T05:55:11.934Z,99802.13
2023-04-17T05:57:40.105Z,99794.44
2023-04-17T06:00:13.178Z,99796.78
2023-04-17T06:02:44.106Z,99793.94
2023-04-17T06:05:12.500Z,99800.84
2023-04-17T06:07:40.947Z,99794.72
2023-04-17T06:10:10.111Z,99806.13
2023-04-17T06:12:38.740Z,99792.00
2023-04-17T06:15:09.477Z,99799.91
2023-04-17T06:17:38.347Z,99810.19
2023-04-17T06:20:10.615Z,99804.25
2023-04-17T06:22:39.333Z,99808.50
2023-04-17T06:25:08.631Z,99811.84
2023-04-17T06:27:38.766Z,99806.38
2023-04-17T06:30:07.973Z,99805.31
2023-04-17T06:32:36.283Z,99807.72
2023-04-17T06:35:04.558Z,99810.63
2023-04-17T06:37:34.032Z,99803.94
2023-04-17T06:40:02.141Z,99799.34
2023-04-17T06:42:30.273Z,99797.06
2023-04-17T06:44:58.307Z,99801.06
2023-04-17T06:47:26.785Z,99798.34
2023-04-17T06:49:58.124Z,99803.56
2023-04-17T06:52:26.334Z,99800.22
2023-04-17T06:54:56.726Z,99805.69
2023-04-17T06:57:24.773Z,99805.22
2023-04-17T06:59:52.884Z,99806.13
2023-04-17T07:02:21.252Z,99805.28
2023-04-17T07:04:50.457Z,99800.72
2023-04-17T07:07:18.599Z,99807.63
2023-04-17T07:09:48.258Z,99805.44
2023-04-17T07:12:18.001Z,99808.41
2023-04-17T07:14:46.336Z,99807.47
2023-04-17T07:17:14.768Z,99812.84
2023-04-17T07:19:42.966Z,99811.75
2023-04-17T07:22:11.309Z,99807.16
2023-04-17T07:24:39.336Z,99812.16
2023-04-17T07:27:08.117Z,99813.31
2023-04-17T07:29:38.028Z,99821.56
2023-04-17T07:32:07.087Z,99817.88
2023-04-17T07:34:35.774Z,99818.44
2023-04-17T07:37:04.100Z,99820.06
2023-04-17T07:39:32.282Z,99815.19
2023-04-17T07:42:03.203Z,99812.41
2023-04-17T07:44:31.208Z,99809.94
2023-04-17T07:47:00.914Z,99813.25
2023-04-17T07:49:29.131Z,99815.97
2023-04-17T07:51:57.443Z,99808.88
2023-04-17T07:54:25.826Z,99809.25
2023-04-17T07:56:58.375Z,99812.22
2023-04-17T07:59:26.521Z,99811.13
2023-04-17T08:01:55.044Z,99817.97
2023-04-17T08:04:25.292Z,99818.47
2023-04-17T08:06:53.621Z,99817.09
2023-04-17T08:09:22.762Z,99818.13
2023-04-17T08:11:57.494Z,99811.31
2023-04-17T08:14:26.231Z,99819.28
2023-04-17T08:16:54.511Z,99825.28
2023-04-17T08:19:22.595Z,99829.22
2023-04-17T08:21:52.336Z,99822.28
2023-04-17T08:24:20.601Z,99828.88
2023-04-17T08:26:49.246Z,99821.00
2023-04-17T08:29:18.451Z,99831.44
2023-04-17T08:31:47.659Z,99824.31
2023-04-17T08:34:15.870Z,99822.72
2023-04-17T08:36:44.184Z,99823.91
2023-04-17T08:39:15.413Z,99823.09
2023-04-17T08:41:50.591Z,99813.44
2023-04-17T08:44:21.665Z,99824.72
2023-04-17T08:46:51.006Z,99819.84
2023-04-17T08:49:21.434Z,99822.25
2023-04-17T08:51:49.789Z,99818.66
2023-04-17T08:54:19.822Z,99819.16
2023-04-17T08:56:48.427Z,99808.97
2023-04-17T08:59:17.261Z,99820.81
2023-04-17T09:02:04.431Z,99817.72
2023-04-17T09:04:38.356Z,99817.06
2023-04-17T09:07:06.821Z,99821.03
2023-04-17T09:09:53.907Z,99814.69
2023-04-17T09:12:24.152Z,99816.41
2023-04-17T09:14:52.878Z,99824.56
2023-04-17T09:17:23.076Z,99828.63
2023-04-17T09:20:07.935Z,99815.56
2023-04-17T09:22:37.540Z,99822.31
2023-04-17T09:25:17.540Z,99820.59
2023-04-17T09:27:45.886Z,99817.25
2023-04-17T09:30:15.245Z,99805.78
2023-04-17T09:32:44.252Z,99821.00
2023-04-17T09:35:14.916Z,99817.31
2023-04-17T09:37:53.199Z,99823.03
2023-04-17T09:40:25.201Z,99821.69
2023-04-17T09:43:01.272Z,99819.72
2023-04-17T09:45:35.580Z,99816.41
2023-04-17T09:48:08.146Z,99820.59
2023-04-17T09:50:38.638Z,99820.66
2023-04-17T09:53:09.688Z,99823.22
2023-04-17T09:55:43.681Z,99828.50
2023-04-17T09:58:12.628Z,99830.31
2023-04-17T10:00:44.276Z,99825.97
2023-04-17T10:03:18.348Z,99829.75
2023-04-17T10:05:47.547Z,99833.66
2023-04-17T10:08:16.591Z,99832.53
2023-04-17T10:10:46.780Z,99837.53
2023-04-17T10:13:15.170Z,99827.38
2023-04-17T10:15:43.407Z,99828.25
2023-04-17T10:18:23.685Z,99834.13
2023-04-17T10:20:54.020Z,99832.06
2023-04-17T10:23:31.497Z,99833.88
2023-04-17T10:26:42.535Z,99831.88
2023-04-17T10:29:12.962Z,99831.94
2023-04-17T10:32:19.868Z,99832.50
2023-04-17T10:34:48.476Z,99825.03
2023-04-17T10:37:19.480Z,99826.34
2023-04-17T10:39:52.725Z,99818.81
2023-04-17T10:42:21.683Z,99826.03
2023-04-17T10:44:56.984Z,99826.53
2023-04-17T10:47:32.795Z,99823.28
2023-04-17T10:50:05.544Z,99824.94
2023-04-17T10:52:42.252Z,99815.50
2023-04-17T10:55:13.702Z,99815.31
2023-04-17T10:57:56.413Z,99819.81
2023-04-17T11:00:33.455Z,99809.66
2023-04-17T11:03:03.729Z,99819.81
2023-04-17T11:05:32.824Z,99815.78
2023-04-17T11:08:01.222Z,99812.97
2023-04-17T11:10:29.541Z,99806.53
2023-04-17T11:12:57.965Z,99813.91
2023-04-17T11:15:31.718Z,99807.38
2023-04-17T11:18:02.434Z,99808.41
2023-04-17T11:20:32.115Z,99806.03
2023-04-17T11:23:02.786Z,99805.84
2023-04-17T11:25:33.985Z,99816.47
2023-04-17T11:28:04.829Z,99800.41
2023-04-17T11:30:35.706Z,99810.78
2023-04-17T11:33:06.344Z,99802.31
2023-04-17T11:35:36.164Z,99813.41
2023-04-17T11:38:21.063Z,99806.44
2023-04-17T11:40:52.759Z,99808.78
2023-04-17T11:43:22.368Z,99803.06
2023-04-17T11:45:53.984Z,99804.84
2023-04-17T11:48:26.188Z,99803.13
2023-04-17T11:50:57.491Z,99804.47
2023-04-17T11:53:27.417Z,99796.63
2023-04-17T11:56:15.960Z,99795.44
2023-04-17T11:58:51.743Z,99794.69
2023-04-17T12:01:24.914Z,99795.66
2023-04-17T12:03:53.946Z,99791.19
2023-04-17T12:06:22.662Z,99793.84
2023-04-17T12:08:52.438Z,99797.47
2023-04-17T12:11:30.851Z,99803.03
2023-04-17T12:14:01.023Z,99796.28
2023-04-17T12:16:31.714Z,99798.22
2023-04-17T12:19:00.015Z,99798.50
2023-04-17T12:21:28.740Z,99801.06
2023-04-17T12:23:57.237Z,99801.19
2023-04-17T12:26:26.315Z,99787.78
2023-04-17T12:28:58.104Z,99791.03
2023-04-17T12:31:26.210Z,99800.16
2023-04-17T12:33:56.130Z,99790.97
2023-04-17T12:36:24.251Z,99798.41
2023-04-17T12:38:53.018Z,99794.91
2023-04-17T12:41:21.749Z,99797.66
2023-04-17T12:43:50.553Z,99796.50
2023-04-17T12:46:19.113Z,99791.47
2023-04-17T12:48:47.601Z,99793.47
2023-04-17T12:51:17.289Z,99782.75
2023-04-17T12:53:45.640Z,99789.34
2023-04-17T12:56:14.309Z,99784.78
2023-04-17T12:58:42.429Z,99785.97
2023-04-17T13:01:10.672Z,99793.66
2023-04-17T13:03:39.162Z,99780.81
2023-04-17T13:06:07.888Z,99772.88
2023-04-17T13:08:37.940Z,99778.22
2023-04-17T13:11:06.591Z,99770.97
2023-04-17T13:13:34.660Z,99773.75
2023-04-17T13:16:03.346Z,99760.84
2023-04-17T13:18:31.847Z,99761.13
2023-04-17T13:20:59.980Z,99763.16
2023-04-17T13:23:28.281Z,99750.94
2023-04-17T13:25:58.038Z,99748.28
2023-04-17T13:28:26.278Z,99754.59
2023-04-17T13:30:55.742Z,99753.63
2023-04-17T13:33:24.111Z,99748.78
2023-04-17T13:35:53.530Z,99757.13
2023-04-17T13:38:21.616Z,99758.47
2023-04-17T13:40:50.217Z,99759.31
2023-04-17T13:43:19.960Z,99754.41
2023-04-17T13:45:49.818Z,99751.69
2023-04-17T13:48:17.990Z,99753.34
2023-04-17T13:50:46.255Z,99745.16
2023-04-17T13:53:14.585Z,99745.75
2023-04-17T13:55:44.270Z,99740.50
2023-04-17T13:58:13.472Z,99747.44
2023-04-17T14:00:48.749Z,99739.41
2023-04-17T14:03:16.978Z,99734.31
2023-04-17T14:05:46.306Z,99734.66
2023-04-17T14:08:14.455Z,99735.75
2023-04-17T14:10:42.502Z,99736.75
2023-04-17T14:13:12.187Z,99737.06
2023-04-17T14:15:41.983Z,99739.53
2023-04-17T14:18:12.067Z,99742.63
2023-04-17T14:20:40.118Z,99737.72
2023-04-17T14:23:08.346Z,99741.44
2023-04-17T14:25:36.474Z,99737.25
2023-04-17T14:28:04.757Z,99728.41
2023-04-17T14:30:33.008Z,99729.25
2023-04-17T14:33:01.393Z,99734.75
2023-04-17T14:35:33.217Z,99732.72
2023-04-17T14:38:05.048Z,99736.22
2023-04-17T14:40:33.310Z,99731.63
2023-04-17T14:43:01.489Z,99733.56
2023-04-17T14:45:29.804Z,99728.22
2023-04-17T14:47:58.222Z,99735.34
2023-04-17T14:50:26.471Z,99729.91
2023-04-17T14:52:58.661Z,99732.16
2023-04-17T14:55:27.251Z,99731.41
2023-04-17T14:57:56.101Z,99735.34
2023-04-17T15:00:24.544Z,99730.22
2023-04-17T15:02:53.029Z,99730.91
2023-04-17T15:05:22.769Z,99730.16
2023-04-17T15:07:51.414Z,99721.53
2023-04-17T15:10:21.340Z,99730.47
2023-04-17T15:12:49.447Z,99733.25
2023-04-17T15:15:17.682Z,99731.84
2023-04-17T15:17:45.810Z,99730.66
2023-04-17T15:20:15.019Z,99726.97
2023-04-17T15:22:44.048Z,99725.56
2023-04-17T15:25:12.258Z,99733.88
2023-04-17T15:27:41.726Z,99732.16
2023-04-17T15:30:11.310Z,99722.88
2023-04-17T15:32:41.852Z,99723.81
2023-04-17T15:35:10.600Z,99724.03
2023-04-17T15:37:39.983Z,99721.16
2023-04-17T15:40:09.532Z,99723.06
2023-04-17T15:42:38.120Z,99718.19
2023-04-17T15:45:11.247Z,99717.16
2023-04-17T15:47:39.730Z,99724.25
2023-04-17T15:50:09.053Z,99721.31
2023-04-17T15:52:37.393Z,99720.41
2023-04-17T15:55:06.116Z,99716.50
2023-04-17T15:57:34.233Z,99708.47
2023-04-17T16:00:02.685Z,99710.16
2023-04-17T16:02:32.422Z,99709.53
2023-04-17T16:05:00.908Z,99712.34
2023-04-17T16:07:29.154Z,99708.00
2023-04-17T16:09:57.264Z,99714.16
2023-04-17T16:12:25.652Z,99712.41
2023-04-17T16:14:53.712Z,99722.97
2023-04-17T16:17:21.933Z,99719.44
2023-04-17T16:19:51.473Z,99721.91
2023-04-17T16:22:20.161Z,99725.06
2023-04-17T16:24:48.491Z,99725.84
2023-04-17T16:27:16.717Z,99727.34
2023-04-17T16:29:45.886Z,99730.13
2023-04-17T16:32:14.976Z,99723.19
2023-04-17T16:34:43.599Z,99722.25
2023-04-17T16:37:14.946Z,99717.56
2023-04-17T16:39:43.290Z,99725.00
2023-04-17T16:42:11.437Z,99723.22
2023-04-17T16:44:39.592Z,99723.97
2023-04-17T16:47:13.438Z,99728.00
2023-04-17T16:49:42.877Z,99717.25
2023-04-17T16:52:13.024Z,99718.84
2023-04-17T16:54:41.339Z,99720.63
2023-04-17T16:57:10.267Z,99719.16
2023-04-17T16:59:38.315Z,99725.75
2023-04-17T17:02:07.863Z,99725.09
2023-04-17T17:04:36.655Z,99722.84
2023-04-17T17:07:04.890Z,99723.06
2023-04-17T17:09:34.451Z,99727.88
2023-04-17T17:12:02.673Z,99723.53
2023-04-17T17:14:32.646Z,99725.13
2023-04-17T17:17:00.820Z,99726.72
2023-04-17T17:19:30.434Z,99733.66
2023-04-17T17:21:59.082Z,99731.97
2023-04-17T17:24:28.793Z,99728.31
2023-04-17T17:26:58.654Z,99736.00
2023-04-17T17:29:27.074Z,99726.47
2023-04-17T17:31:56.875Z,99735.06
2023-04-17T17:34:26.987Z,99732.75
2023-04-17T17:36:55.622Z,99729.34
2023-04-17T17:39:23.770Z,99725.69
2023-04-17T17:41:52.202Z,99725.09
2023-04-17T17:44:22.035Z,99732.50
2023-04-17T17:46:51.452Z,99733.56
2023-04-17T17:49:19.738Z,99732.06
2023-04-17T17:51:48.244Z,99731.91
2023-04-17T17:54:16.510Z,99730.16
2023-04-17T17:56:44.881Z,99737.91
2023-04-17T17:59:13.140Z,99741.19
2023-04-17T18:01:42.649Z,99741.28
2023-04-17T18:04:11.401Z,99746.53
2023-04-17T18:06:41.178Z,99743.25
2023-04-17T18:09:09.821Z,99737.50
2023-04-17T18:11:38.394Z,99740.72
2023-04-17T18:14:06.969Z,99741.81
2023-04-17T18:16:37.276Z,99747.50
2023-04-17T18:19:07.057Z,99742.47
2023-04-17T18:21:35.420Z,99739.53
2023-04-17T18:24:03.725Z,99744.19
2023-04-17T18:26:33.664Z,99750.91
2023-04-17T18:29:01.754Z,99753.38
2023-04-17T18:31:30.122Z,99747.88
2023-04-17T18:34:02.380Z,99751.78
2023-04-17T18:36:32.267Z,99756.59
2023-04-17T18:39:00.646Z,99756.75
2023-04-17T18:41:28.788Z,99757.44
2023-04-17T18:43:57.127Z,99750.59
2023-04-17T18:46:27.206Z,99753.81
2023-04-17T18:48:55.569Z,99756.00
2023-04-17T18:51:23.624Z,99762.94
2023-04-17T18:53:53.547Z,99764.25
2023-04-17T18:56:22.928Z,99769.25
2023-04-17T18:58:51.364Z,99759.59
2023-04-17T19:01:19.729Z,99763.31
2023-04-17T19:03:48.256Z,99763.41
2023-04-17T19:06:16.522Z,99770.50
2023-04-17T19:08:44.686Z,99769.13
2023-04-17T19:11:14.192Z,99773.81
2023-04-17T19:13:42.902Z,99766.72
2023-04-17T19:16:11.499Z,99773.34
2023-04-17T19:18:39.995Z,99768.63
2023-04-17T19:21:08.470Z,99770.38
2023-04-17T19:23:38.429Z,99770.28
2023-04-17T19:26:06.841Z,99771.38
2023-04-17T19:28:37.323Z,99772.66
2023-04-17T19:31:06.434Z,99769.84
2023-04-17T19:33:35.731Z,99772.59
2023-04-17T19:36:04.451Z,99768.84
2023-04-17T19:38:33.016Z,99776.28
2023-04-17T19:41:17.466Z,99769.47
2023-04-17T19:43:47.565Z,99773.91
2023-04-17T19:46:16.077Z,99783.88
2023-04-17T19:48:45.000Z,99781.41
2023-04-17T19:51:14.554Z,99773.00
2023-04-17T19:53:45.616Z,99775.16
2023-04-17T19:56:16.058Z,99778.81
2023-04-17T19:58:44.447Z,99778.34
2023-04-17T20:01:14.408Z,99776.94
2023-04-17T20:03:46.413Z,99773.00
2023-04-17T20:06:15.465Z,99772.91
2023-04-17T20:08:43.786Z,99777.28
2023-04-17T20:11:12.368Z,99780.09
2023-04-17T20:13:40.726Z,99785.63
2023-04-17T20:16:11.255Z,99779.38
2023-04-17T20:18:41.884Z,99788.41
2023-04-17T20:21:10.026Z,99779.06
2023-04-17T20:23:38.091Z,99789.00
2023-04-17T20:26:08.257Z,99776.78
2023-04-17T20:28:39.108Z,99776.91
2023-04-17T20:31:08.808Z,99774.00
2023-04-17T20:33:37.345Z,99780.59
2023-04-17T20:36:08.908Z,99791.19
2023-04-17T20:38:37.599Z,99783.09
2023-04-17T20:41:08.006Z,99783.78
2023-04-17T20:43:37.005Z,99786.22
2023-04-17T20:46:07.117Z,99787.16
2023-04-17T20:48:35.680Z,99779.97
2023-04-17T20:51:09.441Z,99776.94
2023-04-17T20:53:37.690Z,99776.00
2023-04-17T20:56:06.066Z,99775.84
2023-04-17T20:58:34.506Z,99772.09
2023-04-17T21:01:03.400Z,99771.03
2023-04-17T21:03:32.494Z,99767.66
2023-04-17T21:06:01.232Z,99776.72
2023-04-17T21:08:31.255Z,99765.78
2023-04-17T21:10:59.390Z,99772.03
2023-04-17T21:13:27.976Z,99767.13
2023-04-17T21:15:56.174Z,99777.59
2023-04-17T21:18:24.187Z,99776.34
2023-04-17T21:20:52.247Z,99780.53
2023-04-17T21:23:20.649Z,99777.59
2023-04-17T21:25:51.981Z,99773.78
2023-04-17T21:28:20.134Z,99772.84
2023-04-17T21:30:48.410Z,99771.34
2023-04-17T21:33:16.868Z,99771.28
2023-04-17T21:35:44.956Z,99774.38
2023-04-17T21:38:13.946Z,99768.19
2023-04-17T21:40:50.873Z,99780.69
2023-04-17T21:43:20.941Z,99776.97
2023-04-17T21:45:50.133Z,99777.91
2023-04-17T21:48:18.479Z,99780.47
2023-04-17T21:50:46.885Z,99780.22
2023-04-17T21:53:15.284Z,99780.63
2023-04-17T21:55:43.426Z,99776.63
2023-04-17T21:58:11.449Z,99782.25
2023-04-17T22:00:41.154Z,99783.59
2023-04-17T22:03:09.483Z,99779.38
2023-04-17T22:05:37.808Z,99784.16
2023-04-17T22:08:06.425Z,99788.75
2023-04-17T22:10:34.751Z,99782.44
2023-04-17T22:13:02.947Z,99770.59
2023-04-17T22:15:31.377Z,99771.16
2023-04-17T22:18:01.108Z,99774.88
2023-04-17T22:20:29.241Z,99772.66
2023-04-17T22:22:57.426Z,99771.38
2023-04-17T22:25:25.867Z,99768.81
2023-04-17T22:27:54.052Z,99762.44
2023-04-17T22:30:22.650Z,99774.09
2023-04-17T22:32:51.243Z,99774.88
2023-04-17T22:35:21.074Z,99769.44
2023-04-17T22:37:49.344Z,99775.66
2023-04-17T22:40:17.598Z,99771.97
2023-04-17T22:42:45.881Z,99777.53
2023-04-17T22:45:14.061Z,99782.22
2023-04-17T22:47:42.179Z,99782.66
2023-04-17T22:50:11.162Z,99780.81
2023-04-17T22:52:40.998Z,99781.69
2023-04-17T22:55:09.984Z,99788.94
2023-04-17T22:57:38.287Z,99787.94
2023-04-17T23:00:10.603Z,99787.88
2023-04-17T23:02:40.647Z,99791.84
2023-04-17T23:05:10.514Z,99796.94
2023-04-17T23:07:39.568Z,99788.97
2023-04-17T23:10:10.100Z,99802.88
2023-04-17T23:12:38.020Z,99794.97
2023-04-17T23:15:08.468Z,99797.03
2023-04-17T23:17:36.900Z,99793.00
2023-04-17T23:20:06.667Z,99790.09
2023-04-17T23:22:34.891Z,99787.22
2023-04-17T23:25:03.076Z,99785.97
2023-04-17T23:27:32.920Z,99783.97
2023-04-17T23:30:01.125Z,99789.63
2023-04-17T23:32:29.387Z,99794.00
2023-04-17T23:34:57.613Z,99784.50
2023-04-17T23:37:26.096Z,99787.13
2023-04-17T23:39:54.238Z,99778.59
2023-04-17T23:42:22.460Z,99792.47
2023-04-17T23:44:52.190Z,99797.00
2023-04-17T23:47:20.294Z,99791.41
2023-04-17T23:49:48.786Z,99789.00
2023-04-17T23:52:17.116Z,99795.50
2023-04-17T23:54:45.050Z,99793.19
2023-04-17T23:57:13.362Z,99792.00
2023-04-17T23:59:41.468Z,99793.91
